Terminal Aerodrome Forecast
Issued by NWS

Home | Current Version | Previous Version | Graphics & Text | Print | Product List | Glossary On
Versions: 1 2 3 4 5 6 7 8 9 10 11 12 13 14
000
FTUS43 KDDC 250537
TAFHYS
TAF
KHYS 250537Z 2506/2606 05008KT P6SM VCTS BKN250CB
     FM251100 05007KT P6SM -SHRA BKN090
      TEMPO 2511/2512 4SM TS OVC040CB
     FM251200 06007KT P6SM BKN120
     FM251700 09009KT P6SM SCT110=

USA.gov is the U.S. government's official web portal to all federal, state and local government web resources and services.